sensor_id;sensor_type;location;lat;lon;timestamp;pressure;altitude;pressure_sealevel;temperature;humidity
31331;BME280;34067;39.548;-76.088;2023-07-24T00:00:24;101456.55;;;32.47;35.72
31331;BME280;34067;39.548;-76.088;2023-07-24T00:02:52;101461.80;;;32.40;36.23
31331;BME280;34067;39.548;-76.088;2023-07-24T00:05:20;101463.36;;;32.46;36.56
31331;BME280;34067;39.548;-76.088;2023-07-24T00:07:47;101467.06;;;32.11;36.19
31331;BME280;34067;39.548;-76.088;2023-07-24T00:10:15;101468.43;;;31.97;36.15
31331;BME280;34067;39.548;-76.088;2023-07-24T00:12:43;101470.63;;;31.46;37.16
31331;BME280;34067;39.548;-76.088;2023-07-24T00:15:10;101471.18;;;31.54;37.15
31331;BME280;34067;39.548;-76.088;2023-07-24T00:17:38;101469.65;;;30.40;38.41
31331;BME280;34067;39.548;-76.088;2023-07-24T00:20:07;101468.48;;;31.37;38.05
31331;BME280;34067;39.548;-76.088;2023-07-24T00:22:34;101469.71;;;31.11;38.37
31331;BME280;34067;39.548;-76.088;2023-07-24T00:25:02;101475.01;;;30.96;38.51
31331;BME280;34067;39.548;-76.088;2023-07-24T00:27:30;101477.89;;;31.37;38.60
31331;BME280;34067;39.548;-76.088;2023-07-24T00:29:58;101480.68;;;30.97;39.43
31331;BME280;34067;39.548;-76.088;2023-07-24T00:32:26;101478.67;;;30.70;39.04
31331;BME280;34067;39.548;-76.088;2023-07-24T00:34:53;101481.07;;;31.48;39.13
31331;BME280;34067;39.548;-76.088;2023-07-24T00:37:21;101482.42;;;31.12;38.72
31331;BME280;34067;39.548;-76.088;2023-07-24T00:39:49;101484.93;;;30.77;38.97
31331;BME280;34067;39.548;-76.088;2023-07-24T00:42:17;101485.43;;;30.88;38.93
31331;BME280;34067;39.548;-76.088;2023-07-24T00:44:45;101486.37;;;31.17;38.88
31331;BME280;34067;39.548;-76.088;2023-07-24T00:47:13;101488.17;;;31.33;38.50
31331;BME280;34067;39.548;-76.088;2023-07-24T00:49:41;101489.28;;;31.32;38.42
31331;BME280;34067;39.548;-76.088;2023-07-24T00:52:09;101498.11;;;31.46;38.30
31331;BME280;34067;39.548;-76.088;2023-07-24T00:54:38;101503.25;;;31.63;38.01
31331;BME280;34067;39.548;-76.088;2023-07-24T00:57:06;101504.55;;;31.33;38.52
31331;BME280;34067;39.548;-76.088;2023-07-24T00:59:34;101511.36;;;31.30;38.65
31331;BME280;34067;39.548;-76.088;2023-07-24T01:02:03;101515.59;;;31.38;38.66
31331;BME280;34067;39.548;-76.088;2023-07-24T01:04:31;101520.70;;;31.20;38.82
31331;BME280;34067;39.548;-76.088;2023-07-24T01:06:58;101519.36;;;30.86;39.10
31331;BME280;34067;39.548;-76.088;2023-07-24T01:09:27;101519.83;;;31.11;38.96
31331;BME280;34067;39.548;-76.088;2023-07-24T01:11:59;101522.23;;;31.07;39.43
31331;BME280;34067;39.548;-76.088;2023-07-24T01:14:34;101523.66;;;30.68;39.15
31331;BME280;34067;39.548;-76.088;2023-07-24T01:17:07;101527.90;;;31.44;39.10
31331;BME280;34067;39.548;-76.088;2023-07-24T01:19:37;101527.97;;;31.17;39.21
31331;BME280;34067;39.548;-76.088;2023-07-24T01:22:14;101532.71;;;31.24;39.14
31331;BME280;34067;39.548;-76.088;2023-07-24T01:25:00;101535.36;;;31.20;39.18
31331;BME280;34067;39.548;-76.088;2023-07-24T01:27:32;101536.94;;;30.99;39.27
31331;BME280;34067;39.548;-76.088;2023-07-24T01:30:00;101543.69;;;30.98;39.40
31331;BME280;34067;39.548;-76.088;2023-07-24T01:32:27;101549.27;;;30.43;39.57
31331;BME280;34067;39.548;-76.088;2023-07-24T01:34:55;101555.88;;;30.73;39.57
31331;BME280;34067;39.548;-76.088;2023-07-24T01:37:24;101558.14;;;30.43;39.62
31331;BME280;34067;39.548;-76.088;2023-07-24T01:39:53;101564.96;;;30.54;39.86
31331;BME280;34067;39.548;-76.088;2023-07-24T01:42:23;101569.89;;;30.19;40.38
31331;BME280;34067;39.548;-76.088;2023-07-24T01:44:53;101574.08;;;30.24;40.23
31331;BME280;34067;39.548;-76.088;2023-07-24T01:47:21;101576.91;;;31.05;39.72
31331;BME280;34067;39.548;-76.088;2023-07-24T01:49:49;101579.27;;;30.79;39.38
31331;BME280;34067;39.548;-76.088;2023-07-24T01:52:17;101582.72;;;30.74;39.77
31331;BME280;34067;39.548;-76.088;2023-07-24T01:54:44;101584.31;;;30.64;39.95
31331;BME280;34067;39.548;-76.088;2023-07-24T01:57:12;101586.03;;;30.34;40.23
31331;BME280;34067;39.548;-76.088;2023-07-24T01:59:40;101587.84;;;30.53;40.05
31331;BME280;34067;39.548;-76.088;2023-07-24T02:02:08;101589.97;;;30.48;40.02
31331;BME280;34067;39.548;-76.088;2023-07-24T02:04:35;101591.16;;;30.05;40.35
31331;BME280;34067;39.548;-76.088;2023-07-24T02:07:03;101590.29;;;30.12;40.30
31331;BME280;34067;39.548;-76.088;2023-07-24T02:09:32;101590.72;;;30.23;39.56
31331;BME280;34067;39.548;-76.088;2023-07-24T02:12:00;101590.29;;;29.41;40.59
31331;BME280;34067;39.548;-76.088;2023-07-24T02:14:29;101587.79;;;30.61;40.35
31331;BME280;34067;39.548;-76.088;2023-07-24T02:16:57;101590.40;;;30.25;40.26
31331;BME280;34067;39.548;-76.088;2023-07-24T02:19:24;101591.76;;;29.95;40.42
31331;BME280;34067;39.548;-76.088;2023-07-24T02:21:53;101590.41;;;30.13;40.38
31331;BME280;34067;39.548;-76.088;2023-07-24T02:24:21;101590.61;;;29.86;40.38
31331;BME280;34067;39.548;-76.088;2023-07-24T02:26:49;101591.78;;;30.20;40.41
31331;BME280;34067;39.548;-76.088;2023-07-24T02:29:16;101591.26;;;29.59;40.61
31331;BME280;34067;39.548;-76.088;2023-07-24T02:31:45;101592.37;;;30.07;40.64
31331;BME280;34067;39.548;-76.088;2023-07-24T02:34:13;101598.66;;;30.13;40.58
31331;BME280;34067;39.548;-76.088;2023-07-24T02:36:42;101605.13;;;29.94;40.96
31331;BME280;34067;39.548;-76.088;2023-07-24T02:39:09;101609.10;;;29.84;41.99
31331;BME280;34067;39.548;-76.088;2023-07-24T02:41:37;101612.65;;;29.42;42.97
31331;BME280;34067;39.548;-76.088;2023-07-24T02:44:06;101613.11;;;29.36;44.21
31331;BME280;34067;39.548;-76.088;2023-07-24T02:46:34;101615.67;;;29.17;44.72
31331;BME280;34067;39.548;-76.088;2023-07-24T02:49:02;101618.10;;;29.22;45.27
31331;BME280;34067;39.548;-76.088;2023-07-24T02:51:29;101613.79;;;29.28;45.39
31331;BME280;34067;39.548;-76.088;2023-07-24T02:53:58;101609.40;;;28.94;46.77
31331;BME280;34067;39.548;-76.088;2023-07-24T02:56:25;101610.08;;;29.38;46.90
31331;BME280;34067;39.548;-76.088;2023-07-24T02:58:53;101614.22;;;29.48;47.13
31331;BME280;34067;39.548;-76.088;2023-07-24T03:01:21;101619.10;;;29.50;47.41
31331;BME280;34067;39.548;-76.088;2023-07-24T03:03:48;101622.18;;;29.42;47.54
31331;BME280;34067;39.548;-76.088;2023-07-24T03:06:16;101624.51;;;29.36;47.21
31331;BME280;34067;39.548;-76.088;2023-07-24T03:08:44;101626.22;;;29.17;47.62
31331;BME280;34067;39.548;-76.088;2023-07-24T03:11:11;101625.21;;;29.36;47.38
31331;BME280;34067;39.548;-76.088;2023-07-24T03:13:39;101625.41;;;29.10;47.25
31331;BME280;34067;39.548;-76.088;2023-07-24T03:16:07;101622.20;;;29.04;47.37
31331;BME280;34067;39.548;-76.088;2023-07-24T03:18:35;101625.65;;;29.02;46.87
31331;BME280;34067;39.548;-76.088;2023-07-24T03:21:03;101626.98;;;29.03;47.03
31331;BME280;34067;39.548;-76.088;2023-07-24T03:23:31;101625.72;;;29.22;46.14
31331;BME280;34067;39.548;-76.088;2023-07-24T03:25:59;101627.82;;;28.42;47.47
31331;BME280;34067;39.548;-76.088;2023-07-24T03:28:27;101631.80;;;29.12;48.09
31331;BME280;34067;39.548;-76.088;2023-07-24T03:30:54;101631.17;;;28.67;48.14
31331;BME280;34067;39.548;-76.088;2023-07-24T03:33:23;101637.31;;;28.29;48.00
31331;BME280;34067;39.548;-76.088;2023-07-24T03:35:51;101641.98;;;28.34;48.02
31331;BME280;34067;39.548;-76.088;2023-07-24T03:38:19;101647.03;;;27.69;48.75
31331;BME280;34067;39.548;-76.088;2023-07-24T03:40:46;101649.18;;;27.63;48.60
31331;BME280;34067;39.548;-76.088;2023-07-24T03:43:14;101650.10;;;28.58;48.55
31331;BME280;34067;39.548;-76.088;2023-07-24T03:45:42;101650.06;;;28.79;48.16
31331;BME280;34067;39.548;-76.088;2023-07-24T03:48:10;101650.23;;;28.82;48.10
31331;BME280;34067;39.548;-76.088;2023-07-24T03:50:41;101650.44;;;28.76;48.12
31331;BME280;34067;39.548;-76.088;2023-07-24T03:53:08;101652.03;;;28.81;48.48
31331;BME280;34067;39.548;-76.088;2023-07-24T03:55:36;101649.93;;;28.50;48.24
31331;BME280;34067;39.548;-76.088;2023-07-24T03:58:04;101646.93;;;28.62;48.20
31331;BME280;34067;39.548;-76.088;2023-07-24T04:00:32;101648.85;;;28.03;48.49
31331;BME280;34067;39.548;-76.088;2023-07-24T04:03:00;101650.97;;;28.35;48.52
31331;BME280;34067;39.548;-76.088;2023-07-24T04:05:28;101648.95;;;27.88;48.78
31331;BME280;34067;39.548;-76.088;2023-07-24T04:07:56;101646.40;;;28.53;49.45
31331;BME280;34067;39.548;-76.088;2023-07-24T04:10:24;101643.84;;;28.30;50.14
31331;BME280;34067;39.548;-76.088;2023-07-24T04:12:51;101646.41;;;27.86;49.85
31331;BME280;34067;39.548;-76.088;2023-07-24T04:15:19;101642.56;;;28.48;50.17
31331;BME280;34067;39.548;-76.088;2023-07-24T04:17:47;101643.40;;;28.42;50.71
31331;BME280;34067;39.548;-76.088;2023-07-24T04:20:16;101646.64;;;28.12;51.75
31331;BME280;34067;39.548;-76.088;2023-07-24T04:22:44;101643.97;;;28.16;51.93
31331;BME280;34067;39.548;-76.088;2023-07-24T04:25:11;101640.19;;;28.19;53.56
31331;BME280;34067;39.548;-76.088;2023-07-24T04:27:39;101644.29;;;28.41;52.47
31331;BME280;34067;39.548;-76.088;2023-07-24T04:30:08;101650.73;;;28.62;52.44
31331;BME280;34067;39.548;-76.088;2023-07-24T04:32:36;101650.90;;;28.87;51.55
31331;BME280;34067;39.548;-76.088;2023-07-24T04:35:04;101649.22;;;28.61;51.42
31331;BME280;34067;39.548;-76.088;2023-07-24T04:37:32;101647.88;;;28.89;50.62
31331;BME280;34067;39.548;-76.088;2023-07-24T04:39:59;101646.49;;;28.86;50.45
31331;BME280;34067;39.548;-76.088;2023-07-24T04:42:27;101645.47;;;28.93;49.88
31331;BME280;34067;39.548;-76.088;2023-07-24T04:44:55;101644.35;;;29.13;49.78
31331;BME280;34067;39.548;-76.088;2023-07-24T04:47:23;101647.47;;;28.97;50.31
31331;BME280;34067;39.548;-76.088;2023-07-24T04:49:51;101651.96;;;28.63;49.74
31331;BME280;34067;39.548;-76.088;2023-07-24T04:52:19;101654.46;;;29.11;49.29
31331;BME280;34067;39.548;-76.088;2023-07-24T04:54:47;101653.63;;;29.23;49.11
31331;BME280;34067;39.548;-76.088;2023-07-24T04:57:14;101651.76;;;29.15;49.31
31331;BME280;34067;39.548;-76.088;2023-07-24T04:59:42;101650.69;;;29.01;49.75
31331;BME280;34067;39.548;-76.088;2023-07-24T05:03:11;101646.42;;;28.05;50.13
31331;BME280;34067;39.548;-76.088;2023-07-24T05:05:39;101645.33;;;29.02;50.24
31331;BME280;34067;39.548;-76.088;2023-07-24T05:08:07;101646.00;;;28.97;50.47
31331;BME280;34067;39.548;-76.088;2023-07-24T05:10:35;101648.70;;;28.24;50.19
31331;BME280;34067;39.548;-76.088;2023-07-24T05:13:03;101649.60;;;28.44;50.77
31331;BME280;34067;39.548;-76.088;2023-07-24T05:15:31;101649.20;;;28.24;51.36
31331;BME280;34067;39.548;-76.088;2023-07-24T05:17:59;101649.26;;;28.76;51.06
31331;BME280;34067;39.548;-76.088;2023-07-24T05:20:27;101647.45;;;28.76;50.77
31331;BME280;34067;39.548;-76.088;2023-07-24T05:22:55;101642.58;;;27.60;51.78
31331;BME280;34067;39.548;-76.088;2023-07-24T05:25:23;101641.47;;;28.38;52.22
31331;BME280;34067;39.548;-76.088;2023-07-24T05:27:50;101643.95;;;28.35;52.39
31331;BME280;34067;39.548;-76.088;2023-07-24T05:30:18;101642.35;;;28.32;52.61
31331;BME280;34067;39.548;-76.088;2023-07-24T05:32:46;101639.55;;;28.20;53.15
31331;BME280;34067;39.548;-76.088;2023-07-24T05:35:14;101638.41;;;28.29;52.71
31331;BME280;34067;39.548;-76.088;2023-07-24T05:37:42;101637.99;;;28.26;53.02
31331;BME280;34067;39.548;-76.088;2023-07-24T05:40:10;101637.71;;;27.85;54.19
31331;BME280;34067;39.548;-76.088;2023-07-24T05:42:37;101639.80;;;28.00;54.06
31331;BME280;34067;39.548;-76.088;2023-07-24T05:45:07;101647.34;;;28.20;53.17
31331;BME280;34067;39.548;-76.088;2023-07-24T05:47:35;101648.63;;;28.31;53.39
31331;BME280;34067;39.548;-76.088;2023-07-24T05:50:04;101649.15;;;28.22;53.52
31331;BME280;34067;39.548;-76.088;2023-07-24T05:52:32;101645.17;;;27.94;54.18
31331;BME280;34067;39.548;-76.088;2023-07-24T05:54:59;101649.66;;;28.64;53.60
31331;BME280;34067;39.548;-76.088;2023-07-24T05:57:27;101653.63;;;28.28;53.00
31331;BME280;34067;39.548;-76.088;2023-07-24T05:59:55;101654.43;;;27.96;53.40
31331;BME280;34067;39.548;-76.088;2023-07-24T06:02:23;101648.33;;;27.96;53.94
31331;BME280;34067;39.548;-76.088;2023-07-24T06:04:51;101650.70;;;27.95;54.07
31331;BME280;34067;39.548;-76.088;2023-07-24T06:07:18;101657.25;;;28.12;53.27
31331;BME280;34067;39.548;-76.088;2023-07-24T06:09:46;101653.67;;;27.97;53.69
31331;BME280;34067;39.548;-76.088;2023-07-24T06:12:14;101654.74;;;28.29;54.40
31331;BME280;34067;39.548;-76.088;2023-07-24T06:14:42;101658.31;;;27.90;54.61
31331;BME280;34067;39.548;-76.088;2023-07-24T06:17:10;101658.51;;;28.45;53.98
31331;BME280;34067;39.548;-76.088;2023-07-24T06:19:38;101658.15;;;28.10;54.34
31331;BME280;34067;39.548;-76.088;2023-07-24T06:22:06;101655.53;;;28.02;54.46
31331;BME280;34067;39.548;-76.088;2023-07-24T06:24:34;101658.46;;;27.82;55.04
31331;BME280;34067;39.548;-76.088;2023-07-24T06:27:02;101659.78;;;27.72;55.03
31331;BME280;34067;39.548;-76.088;2023-07-24T06:29:30;101661.14;;;28.22;55.53
31331;BME280;34067;39.548;-76.088;2023-07-24T06:31:58;101665.86;;;28.00;54.74
31331;BME280;34067;39.548;-76.088;2023-07-24T06:34:25;101670.57;;;28.05;54.40
31331;BME280;34067;39.548;-76.088;2023-07-24T06:36:53;101672.55;;;27.84;54.98
31331;BME280;34067;39.548;-76.088;2023-07-24T06:39:21;101673.36;;;27.69;55.61
31331;BME280;34067;39.548;-76.088;2023-07-24T06:41:51;101677.41;;;27.77;54.44
31331;BME280;34067;39.548;-76.088;2023-07-24T06:44:19;101681.89;;;27.94;54.71
31331;BME280;34067;39.548;-76.088;2023-07-24T06:46:47;101686.40;;;28.46;54.41
31331;BME280;34067;39.548;-76.088;2023-07-24T06:49:15;101687.73;;;28.09;54.03
31331;BME280;34067;39.548;-76.088;2023-07-24T06:51:43;101690.60;;;27.98;54.72
31331;BME280;34067;39.548;-76.088;2023-07-24T06:54:10;101695.12;;;28.01;54.65
31331;BME280;34067;39.548;-76.088;2023-07-24T06:56:38;101690.49;;;28.02;54.71
31331;BME280;34067;39.548;-76.088;2023-07-24T06:59:05;101686.81;;;27.72;54.41
31331;BME280;34067;39.548;-76.088;2023-07-24T07:01:33;101683.48;;;27.91;55.89
31331;BME280;34067;39.548;-76.088;2023-07-24T07:04:02;101675.82;;;28.09;56.30
31331;BME280;34067;39.548;-76.088;2023-07-24T07:06:29;101668.30;;;27.81;55.63
31331;BME280;34067;39.548;-76.088;2023-07-24T07:08:57;101668.07;;;28.26;55.46
31331;BME280;34067;39.548;-76.088;2023-07-24T07:11:25;101669.90;;;28.25;55.75
31331;BME280;34067;39.548;-76.088;2023-07-24T07:13:53;101674.74;;;27.46;57.17
31331;BME280;34067;39.548;-76.088;2023-07-24T07:16:21;101676.84;;;27.47;57.93
31331;BME280;34067;39.548;-76.088;2023-07-24T07:18:49;101681.85;;;27.42;58.05
31331;BME280;34067;39.548;-76.088;2023-07-24T07:21:17;101681.22;;;27.95;56.41
31331;BME280;34067;39.548;-76.088;2023-07-24T07:23:44;101679.72;;;28.16;57.26
31331;BME280;34067;39.548;-76.088;2023-07-24T07:26:13;101683.06;;;27.74;56.20
31331;BME280;34067;39.548;-76.088;2023-07-24T07:28:40;101690.55;;;27.48;56.52
31331;BME280;34067;39.548;-76.088;2023-07-24T07:31:08;101691.67;;;27.94;56.68
31331;BME280;34067;39.548;-76.088;2023-07-24T07:33:36;101690.22;;;28.03;56.25
31331;BME280;34067;39.548;-76.088;2023-07-24T07:36:04;101690.52;;;27.70;56.30
31331;BME280;34067;39.548;-76.088;2023-07-24T07:38:33;101691.36;;;27.31;57.14
31331;BME280;34067;39.548;-76.088;2023-07-24T07:41:04;101693.27;;;27.94;56.49
31331;BME280;34067;39.548;-76.088;2023-07-24T07:43:32;101696.00;;;27.59;56.42
31331;BME280;34067;39.548;-76.088;2023-07-24T07:46:00;101693.34;;;27.94;56.54
31331;BME280;34067;39.548;-76.088;2023-07-24T07:48:27;101692.67;;;28.13;56.22
31331;BME280;34067;39.548;-76.088;2023-07-24T07:50:55;101695.79;;;27.75;56.17
31331;BME280;34067;39.548;-76.088;2023-07-24T07:53:24;101687.01;;;27.54;57.18
31331;BME280;34067;39.548;-76.088;2023-07-24T07:55:56;101677.37;;;27.65;56.58
31331;BME280;34067;39.548;-76.088;2023-07-24T07:58:24;101672.80;;;28.05;56.85
31331;BME280;34067;39.548;-76.088;2023-07-24T08:00:51;101673.02;;;27.28;55.90
31331;BME280;34067;39.548;-76.088;2023-07-24T08:03:19;101672.97;;;27.71;56.37
31331;BME280;34067;39.548;-76.088;2023-07-24T08:05:47;101673.61;;;27.82;56.30
31331;BME280;34067;39.548;-76.088;2023-07-24T08:08:15;101673.28;;;27.75;56.49
31331;BME280;34067;39.548;-76.088;2023-07-24T08:10:44;101673.96;;;27.35;56.32
31331;BME280;34067;39.548;-76.088;2023-07-24T08:13:11;101674.77;;;27.77;55.57
31331;BME280;34067;39.548;-76.088;2023-07-24T08:15:39;101675.34;;;27.39;56.25
31331;BME280;34067;39.548;-76.088;2023-07-24T08:18:07;101671.83;;;27.42;56.45
31331;BME280;34067;39.548;-76.088;2023-07-24T08:20:37;101668.12;;;27.45;56.29
31331;BME280;34067;39.548;-76.088;2023-07-24T08:23:04;101663.70;;;28.16;56.21
31331;BME280;34067;39.548;-76.088;2023-07-24T08:25:32;101659.86;;;27.91;55.08
31331;BME280;34067;39.548;-76.088;2023-07-24T08:28:00;101660.08;;;27.94;55.57
31331;BME280;34067;39.548;-76.088;2023-07-24T08:30:28;101660.18;;;28.07;56.43
31331;BME280;34067;39.548;-76.088;2023-07-24T08:32:55;101662.99;;;27.92;57.06
31331;BME280;34067;39.548;-76.088;2023-07-24T08:35:23;101661.70;;;27.63;55.87
31331;BME280;34067;39.548;-76.088;2023-07-24T08:37:51;101660.19;;;28.01;55.65
31331;BME280;34067;39.548;-76.088;2023-07-24T08:40:19;101656.51;;;27.63;56.47
31331;BME280;34067;39.548;-76.088;2023-07-24T08:42:49;101658.35;;;27.37;57.38
31331;BME280;34067;39.548;-76.088;2023-07-24T08:45:18;101654.73;;;27.60;57.76
31331;BME280;34067;39.548;-76.088;2023-07-24T08:47:46;101650.13;;;28.29;56.23
31331;BME280;34067;39.548;-76.088;2023-07-24T08:50:14;101649.51;;;27.89;56.16
31331;BME280;34067;39.548;-76.088;2023-07-24T08:52:44;101649.41;;;28.08;57.42
31331;BME280;34067;39.548;-76.088;2023-07-24T08:55:12;101651.71;;;27.51;56.19
31331;BME280;34067;39.548;-76.088;2023-07-24T08:57:39;101661.74;;;27.71;57.43
31331;BME280;34067;39.548;-76.088;2023-07-24T09:00:08;101662.29;;;26.91;59.09
31331;BME280;34067;39.548;-76.088;2023-07-24T09:02:36;101656.04;;;26.89;59.47
31331;BME280;34067;39.548;-76.088;2023-07-24T09:05:04;101656.26;;;27.00;57.68
31331;BME280;34067;39.548;-76.088;2023-07-24T09:07:32;101664.85;;;26.62;57.79
31331;BME280;34067;39.548;-76.088;2023-07-24T09:10:00;101662.91;;;27.20;56.14
31331;BME280;34067;39.548;-76.088;2023-07-24T09:12:28;101662.21;;;26.73;59.31
31331;BME280;34067;39.548;-76.088;2023-07-24T09:15:03;101663.88;;;27.09;58.50
31331;BME280;34067;39.548;-76.088;2023-07-24T09:17:32;101665.77;;;27.30;58.41
31331;BME280;34067;39.548;-76.088;2023-07-24T09:20:00;101671.04;;;26.71;61.16
31331;BME280;34067;39.548;-76.088;2023-07-24T09:22:27;101669.50;;;26.64;57.34
31331;BME280;34067;39.548;-76.088;2023-07-24T09:24:56;101667.86;;;27.26;58.78
31331;BME280;34067;39.548;-76.088;2023-07-24T09:27:26;101664.97;;;26.84;55.58
31331;BME280;34067;39.548;-76.088;2023-07-24T09:29:56;101664.74;;;27.10;55.08
31331;BME280;34067;39.548;-76.088;2023-07-24T09:32:26;101663.06;;;27.65;57.01
31331;BME280;34067;39.548;-76.088;2023-07-24T09:34:54;101662.80;;;27.60;56.68
31331;BME280;34067;39.548;-76.088;2023-07-24T09:37:24;101662.09;;;28.05;60.11
31331;BME280;34067;39.548;-76.088;2023-07-24T09:39:52;101657.59;;;28.12;63.25
31331;BME280;34067;39.548;-76.088;2023-07-24T09:42:29;101661.41;;;27.93;64.21
31331;BME280;34067;39.548;-76.088;2023-07-24T09:44:57;101655.54;;;27.80;65.21
31331;BME280;34067;39.548;-76.088;2023-07-24T09:47:26;101655.48;;;26.78;66.15
31331;BME280;34067;39.548;-76.088;2023-07-24T09:49:54;101665.57;;;26.80;67.63
31331;BME280;34067;39.548;-76.088;2023-07-24T09:52:24;101671.79;;;27.26;64.76
31331;BME280;34067;39.548;-76.088;2023-07-24T09:54:59;101680.55;;;27.55;65.04
31331;BME280;34067;39.548;-76.088;2023-07-24T09:57:32;101696.12;;;27.59;61.52
31331;BME280;34067;39.548;-76.088;2023-07-24T10:00:01;101702.61;;;27.65;59.58
31331;BME280;34067;39.548;-76.088;2023-07-24T10:02:29;101698.19;;;27.87;56.93
31331;BME280;34067;39.548;-76.088;2023-07-24T10:04:57;101704.22;;;27.57;57.10
31331;BME280;34067;39.548;-76.088;2023-07-24T10:07:25;101705.02;;;27.01;57.98
31331;BME280;34067;39.548;-76.088;2023-07-24T10:09:53;101700.92;;;27.93;57.28
31331;BME280;34067;39.548;-76.088;2023-07-24T10:12:23;101694.36;;;27.79;51.46
31331;BME280;34067;39.548;-76.088;2023-07-24T10:14:51;101696.80;;;27.49;55.94
31331;BME280;34067;39.548;-76.088;2023-07-24T10:17:34;101707.48;;;27.42;55.76
31331;BME280;34067;39.548;-76.088;2023-07-24T10:20:04;101725.04;;;27.00;57.84
31331;BME280;34067;39.548;-76.088;2023-07-24T10:22:33;101746.13;;;26.43;60.20
31331;BME280;34067;39.548;-76.088;2023-07-24T10:25:00;101764.21;;;27.35;60.58
31331;BME280;34067;39.548;-76.088;2023-07-24T10:27:28;101784.93;;;26.70;61.46
31331;BME280;34067;39.548;-76.088;2023-07-24T10:30:00;101803.81;;;26.02;65.75
31331;BME280;34067;39.548;-76.088;2023-07-24T10:32:29;101807.73;;;24.76;69.99
31331;BME280;34067;39.548;-76.088;2023-07-24T10:35:00;101820.51;;;24.73;73.56
31331;BME280;34067;39.548;-76.088;2023-07-24T10:37:36;101826.52;;;24.20;74.54
31331;BME280;34067;39.548;-76.088;2023-07-24T10:40:05;101829.73;;;24.82;71.73
31331;BME280;34067;39.548;-76.088;2023-07-24T10:42:33;101832.71;;;24.63;71.42
31331;BME280;34067;39.548;-76.088;2023-07-24T10:45:09;101835.05;;;25.68;69.85
31331;BME280;34067;39.548;-76.088;2023-07-24T10:47:37;101824.27;;;25.12;71.30
31331;BME280;34067;39.548;-76.088;2023-07-24T10:50:06;101811.40;;;24.87;71.75
31331;BME280;34067;39.548;-76.088;2023-07-24T10:52:34;101811.99;;;24.98;73.72
31331;BME280;34067;39.548;-76.088;2023-07-24T10:55:03;101812.54;;;24.74;74.72
31331;BME280;34067;39.548;-76.088;2023-07-24T10:57:32;101817.22;;;24.50;75.64
31331;BME280;34067;39.548;-76.088;2023-07-24T11:00:00;101822.63;;;25.47;73.36
31331;BME280;34067;39.548;-76.088;2023-07-24T11:02:28;101829.56;;;24.87;74.57
31331;BME280;34067;39.548;-76.088;2023-07-24T11:04:59;101833.13;;;24.72;75.93
31331;BME280;34067;39.548;-76.088;2023-07-24T11:07:32;101838.65;;;24.95;75.96
31331;BME280;34067;39.548;-76.088;2023-07-24T11:10:01;101833.18;;;25.33;75.39
31331;BME280;34067;39.548;-76.088;2023-07-24T11:12:29;101834.18;;;25.37;74.82
31331;BME280;34067;39.548;-76.088;2023-07-24T11:14:57;101840.84;;;25.14;74.32
31331;BME280;34067;39.548;-76.088;2023-07-24T11:17:34;101854.37;;;25.79;72.08
31331;BME280;34067;39.548;-76.088;2023-07-24T11:20:08;101864.73;;;25.08;72.57
31331;BME280;34067;39.548;-76.088;2023-07-24T11:22:37;101853.83;;;24.72;74.63
31331;BME280;34067;39.548;-76.088;2023-07-24T11:25:06;101844.09;;;24.64;75.36
31331;BME280;34067;39.548;-76.088;2023-07-24T11:27:40;101856.70;;;25.42;75.35
31331;BME280;34067;39.548;-76.088;2023-07-24T11:30:09;101868.55;;;24.94;73.62
31331;BME280;34067;39.548;-76.088;2023-07-24T11:34:22;101879.07;;;24.39;75.87
31331;BME280;34067;39.548;-76.088;2023-07-24T11:36:50;101879.99;;;25.16;73.42
31331;BME280;34067;39.548;-76.088;2023-07-24T11:39:22;101884.07;;;25.57;72.59
31331;BME280;34067;39.548;-76.088;2023-07-24T11:41:50;101882.30;;;25.63;72.19
31331;BME280;34067;39.548;-76.088;2023-07-24T11:44:25;101872.21;;;25.55;72.92
31331;BME280;34067;39.548;-76.088;2023-07-24T11:47:01;101859.88;;;25.63;73.22
31331;BME280;34067;39.548;-76.088;2023-07-24T11:49:29;101858.03;;;25.18;73.43
31331;BME280;34067;39.548;-76.088;2023-07-24T11:52:01;101864.41;;;25.07;74.71
31331;BME280;34067;39.548;-76.088;2023-07-24T11:54:29;101871.35;;;24.69;75.86
31331;BME280;34067;39.548;-76.088;2023-07-24T11:56:57;101870.91;;;24.68;76.34
31331;BME280;34067;39.548;-76.088;2023-07-24T11:59:25;101865.74;;;24.92;75.38
31331;BME280;34067;39.548;-76.088;2023-07-24T12:01:53;101856.21;;;25.56;75.65
31331;BME280;34067;39.548;-76.088;2023-07-24T12:04:21;101849.31;;;25.32;75.41
31331;BME280;34067;39.548;-76.088;2023-07-24T12:06:48;101848.99;;;25.72;74.97
31331;BME280;34067;39.548;-76.088;2023-07-24T12:09:16;101849.28;;;25.81;74.86
31331;BME280;34067;39.548;-76.088;2023-07-24T12:11:44;101846.50;;;25.84;74.93
31331;BME280;34067;39.548;-76.088;2023-07-24T12:14:13;101837.50;;;26.05;72.34
31331;BME280;34067;39.548;-76.088;2023-07-24T12:16:41;101838.31;;;25.38;76.19
31331;BME280;34067;39.548;-76.088;2023-07-24T12:19:09;101847.69;;;25.13;77.84
31331;BME280;34067;39.548;-76.088;2023-07-24T12:21:37;101858.10;;;25.00;79.18
31331;BME280;34067;39.548;-76.088;2023-07-24T12:24:06;101864.53;;;25.78;80.14
31331;BME280;34067;39.548;-76.088;2023-07-24T12:26:34;101866.63;;;25.03;81.37
31331;BME280;34067;39.548;-76.088;2023-07-24T12:29:02;101865.94;;;25.27;82.49
31331;BME280;34067;39.548;-76.088;2023-07-24T12:31:30;101863.38;;;24.40;83.42
31331;BME280;34067;39.548;-76.088;2023-07-24T12:33:58;101863.36;;;24.92;81.17
31331;BME280;34067;39.548;-76.088;2023-07-24T12:36:26;101859.31;;;24.49;82.30
31331;BME280;34067;39.548;-76.088;2023-07-24T12:38:54;101854.81;;;25.18;81.79